Kansas City International Airport
KMCI : now visible

Airfield :











YOU CAN JOIN US ON...

 
LOGIN :

Register | Disclaimer

   EN    FR    IT 

 









Legend :    VFR   Marginal VFR   IFR   Intensive IFR   Very Intensive IFR
Visi :
Ceiling :
>= 8 km
>= 3000ft
5 to 8 km
1000 to 3000 ft
1500m to 5 km
500 to 1000 ft
800 to 1500m
200 to 500 ft
< 800m
< 200 ft
Symbols :   Thunderstorms  Fog  Heavy snow  Heavy precipitations  Wind > 20 kt






- Airport Elevation : 1026 ft
- IATA code : MCI


KMCI - Kansas City International

CURRENT METAR :
  • 261503Z 01010KT 1 3/4SM -SN BR BKN016 OVC034 M02/M04 A3037 RMK AO2 P0000 T10171039 $

EXPIRED METARs :
  • 261453Z 02014KT 3SM -SN BR BKN016 OVC040 M02/M04 A3036 RMK AO2 SLP289 P0001 60002 T10171039 53006 $
  • 261423Z 02011KT 1 1/4SM -SN BR BKN014 OVC025 M02/M04 A3036 RMK AO2 P0000 T10221039 $
  • 261414Z 36013KT 2SM -SN BR BKN014 OVC032 M02/M04 A3035 RMK AO2 P0000 T10221039 $
  • 261353Z 01010G21KT 9SM -SN OVC015 M02/M04 A3034 RMK AO2 SNE03B39 SLP283 P0000 T10221044 $
  • 261341Z 01013KT 10SM -SN OVC015 M02/M04 A3033 RMK AO2 SNE03B39 P0000 T10221039 $
  • 261301Z 02013G20KT 5SM -SN BR BKN012 OVC017 M02/M04 A3034 RMK AO2 P0000 T10221039 $
  • 261253Z 01011KT 2SM -SN BR OVC013 M02/M04 A3034 RMK AO2 SFC VIS 6 SLP283 P0001 T10221039 $
  • 261241Z 01013KT 2SM -SN BR SCT010 OVC013 M02/M04 A3034 RMK AO2 SFC VIS 4 P0001 T10221039 $
  • 261230Z 36014KT 2SM -SN BR SCT010 BKN015 OVC020 M02/M04 A3035 RMK AO2 SFC VIS 2 1/2 P0001 T10221039 $

TAF KMCI
Valid from the 26 at 15:00 until the 27 at 12:00 UTC


261504Z 2615/2712 01012KT 3SM -SN OVC011
FM261700 36008KT 5SM -SN BR OVC015
FM262100 01008KT 6SM BR BKN035
FM270300 35005KT P6SM BKN040
KZKC FIR / North America



MET'MAP, your aeronautical weather chart ! - Copyright ORBIFLY December 2007 - Disclaimer

ORBIFLY MET'MAP TEAM :

Programming & Development : Alexandra Zaïnal
Concept & original design : Baudouin d'Aumeries
Assistance for programming : Marc-Olivier Méhu
Technical & hardware support : Manuel Goepfert

Contact : metmap@orbifly.com




SOURCES & CREDITS :

   NOAA       Earth
Advisory